Natashquan, Canada
Current Conditions -  °F | °C
As of 6:00 AM on Friday 31 Oct 2014 (Local Time) from CYNA Reporting Station
Clear Clear  
Wind Chill: 25°   Ceiling: Unl
Heat Index: 25°   Visibility: 9mi
Dew Point: 25°   Wind: 3mph
Humidity: 100%   Direction: 280°W
Pressure: 29.87"   Gusts: NA
Location:  50.13°N, 61.8°W
Report Text: CYNA 310900Z AUTO 28003KT 9SM CLR M04/M04 A2987 RMK ICG SLP114
Loading
Personal Weather Stations






























Interactive Weather Map
Tropical Storm Tracking
New forecast layout! Learn more

10-Day Weather Forecast

Advertisements
Track Severe Weather on mobile